Time;durP1;ratioP1;P1;durP2;ratioP2;P2;SDS_P1;SDS_P2;PMS_P1;PMS_P2;Temp;Humidity;BMP_temperature;BMP_pressure;BME280_temperature;BME280_humidity;BME280_pressure;Samples;Min_cycle;Max_cycle;Signal;HPM_P1;HPM_P2
2022/07/10 00:00:17;;;;;;;2.30;0.50;;;15.00;99.90;;;;;;6286377;22;20421;-94
2022/07/10 00:02:43;;;;;;;2.40;0.20;;;15.10;99.90;;;;;;6286238;22;20237;-94
2022/07/10 00:05:10;;;;;;;2.85;0.25;;;15.10;99.90;;;;;;6286272;22;20077;-95
2022/07/10 00:07:36;;;;;;;0.98;0.30;;;15.10;99.90;;;;;;6286752;22;20072;-95
2022/07/10 00:10:03;;;;;;;1.42;0.20;;;15.10;99.90;;;;;;6286241;22;20023;-94
2022/07/10 00:12:30;;;;;;;1.42;0.15;;;15.10;99.90;;;;;;6286242;22;20007;-94
2022/07/10 00:14:55;;;;;;;1.52;0.10;;;15.10;99.90;;;;;;6286068;22;20546;-95
2022/07/10 00:17:21;;;;;;;1.07;0.20;;;15.10;99.90;;;;;;6285857;22;20011;-95
2022/07/10 00:19:47;;;;;;;2.43;0.50;;;15.00;99.90;;;;;;6312218;22;20261;-94
2022/07/10 00:22:12;;;;;;;1.58;0.30;;;15.00;99.90;;;;;;6286012;22;20252;-94
2022/07/10 00:25:04;;;;;;;1.43;0.30;;;15.00;99.90;;;;;;6285240;22;20382;-92
2022/07/10 00:27:30;;;;;;;1.63;0.20;;;15.00;99.90;;;;;;6284856;22;20245;-94
2022/07/10 00:29:56;;;;;;;1.15;0.28;;;15.00;99.90;;;;;;6285615;22;20025;-93
2022/07/10 00:32:28;;;;;;;1.50;0.30;;;15.00;99.90;;;;;;6310195;22;20014;-96
2022/07/10 00:34:53;;;;;;;0.40;0.28;;;15.00;99.90;;;;;;6282352;22;20015;-92
2022/07/10 00:37:21;;;;;;;2.28;0.20;;;15.10;99.90;;;;;;6283512;22;20070;-93
2022/07/10 00:43:48;;;;;;;5.72;0.40;;;15.00;99.90;;;;;;6311046;22;20024;-95
2022/07/10 00:46:16;;;;;;;1.45;0.20;;;15.00;99.90;;;;;;6310087;22;20023;-92
2022/07/10 00:48:41;;;;;;;2.80;0.40;;;15.00;99.90;;;;;;6284204;22;20336;-92
2022/07/10 00:51:07;;;;;;;2.83;0.28;;;14.90;99.90;;;;;;6283989;22;20029;-93
2022/07/10 00:53:33;;;;;;;0.90;0.30;;;14.90;99.90;;;;;;6310469;22;20042;-94
2022/07/10 00:56:23;;;;;;;1.67;0.32;;;14.90;99.90;;;;;;6285780;22;20011;-96
2022/07/10 00:58:49;;;;;;;2.33;0.68;;;14.90;99.90;;;;;;6285847;22;20015;-94
2022/07/10 01:01:21;;;;;;;;;;;14.90;99.90;;;;;;6286126;22;20014;-94
2022/07/10 01:04:05;;;;;;;1.38;0.25;;;14.80;99.90;;;;;;6287316;22;19945;-95
2022/07/10 01:06:37;;;;;;;0.90;0.30;;;14.80;99.90;;;;;;6285363;22;20389;-96
2022/07/10 01:37:42;;;;;;;2.08;0.50;;;14.80;99.90;;;;;;6405310;22;20022;-95
2022/07/10 01:40:08;;;;;;;3.08;0.40;;;14.80;99.90;;;;;;6374349;22;20025;-95
2022/07/10 01:47:48;;;;;;;1.65;0.28;;;14.80;99.90;;;;;;6337334;22;20029;-91
2022/07/10 01:50:22;;;;;;;1.67;0.20;;;14.80;99.90;;;;;;6285169;22;20459;-94
2022/07/10 01:52:55;;;;;;;1.92;0.25;;;14.80;99.90;;;;;;6285294;22;20015;-94
2022/07/10 01:55:23;;;;;;;2.35;0.43;;;14.80;99.90;;;;;;6286324;22;20355;-94
2022/07/10 01:57:59;;;;;;;1.55;0.28;;;14.70;99.90;;;;;;6287520;22;20015;-95
2022/07/10 02:00:39;;;;;;;3.05;0.38;;;14.70;99.90;;;;;;6288453;22;20022;-96
2022/07/10 02:06:04;;;;;;;1.80;0.28;;;14.70;99.90;;;;;;6313107;22;20464;-95
2022/07/10 02:08:43;;;;;;;0.65;0.20;;;14.70;99.90;;;;;;6287057;22;20026;-95
2022/07/10 02:11:12;;;;;;;4.25;0.47;;;14.70;99.90;;;;;;6285128;22;20015;-94
2022/07/10 02:13:38;;;;;;;2.08;0.28;;;14.70;99.90;;;;;;6312105;22;20446;-95
2022/07/10 02:16:12;;;;;;;2.10;0.30;;;14.70;99.90;;;;;;6287487;22;20021;-95
2022/07/10 02:18:41;;;;;;;1.30;0.30;;;14.70;99.90;;;;;;6312531;22;20054;-93
2022/07/10 02:21:12;;;;;;;1.63;0.35;;;14.70;99.90;;;;;;6286995;22;20015;-95
2022/07/10 02:23:55;;;;;;;0.82;0.30;;;14.60;99.90;;;;;;6287067;22;20019;-95
2022/07/10 02:26:25;;;;;;;1.77;0.20;;;14.60;99.90;;;;;;6286880;22;20018;-95
2022/07/10 02:29:00;;;;;;;0.50;0.20;;;14.60;99.90;;;;;;6286725;22;20160;-94
2022/07/10 02:31:34;;;;;;;2.92;0.30;;;14.50;99.90;;;;;;6286407;22;20344;-93
2022/07/10 02:34:16;;;;;;;1.55;0.10;;;14.50;99.90;;;;;;6285876;22;20041;-94
2022/07/10 02:37:12;;;;;;;2.70;0.30;;;14.50;99.90;;;;;;6286573;22;20140;-94
2022/07/10 02:39:46;;;;;;;0.82;0.20;;;14.40;99.90;;;;;;6311044;22;20067;-93
2022/07/10 02:42:12;;;;;;;0.70;0.30;;;14.40;99.90;;;;;;6286450;22;20325;-93
2022/07/10 02:44:40;;;;;;;0.85;0.22;;;14.40;99.90;;;;;;6312262;22;20026;-94
2022/07/10 02:47:14;;;;;;;3.42;0.60;;;14.40;99.90;;;;;;6286325;22;20007;-96
2022/07/10 02:50:03;;;;;;;1.77;0.30;;;14.40;99.90;;;;;;6310231;22;20026;-95
2022/07/10 02:52:45;;;;;;;0.90;0.22;;;14.40;99.90;;;;;;6286310;22;20089;-94
2022/07/10 02:55:13;;;;;;;2.25;0.47;;;14.40;99.90;;;;;;6286707;22;20023;-94
2022/07/10 02:57:39;;;;;;;2.45;0.60;;;14.50;99.90;;;;;;6286372;22;20048;-94
2022/07/10 03:00:15;;;;;;;2.72;0.30;;;14.50;99.90;;;;;;6285985;22;20019;-94
2022/07/10 03:02:53;;;;;;;2.42;0.57;;;14.50;99.90;;;;;;6286507;22;20089;-95
2022/07/10 03:05:44;;;;;;;;;;;;;;;;;;;;;
2022/07/10 03:08:29;;;;;;;1.30;0.25;;;14.50;99.90;;;;;;6319956;22;20048;-94
2022/07/10 03:11:03;;;;;;;1.75;0.38;;;14.50;99.90;;;;;;6285717;22;20331;-94
2022/07/10 03:13:29;;;;;;;2.03;0.32;;;14.50;99.90;;;;;;6286301;22;20097;-94
2022/07/10 03:15:57;;;;;;;1.65;0.45;;;14.50;99.90;;;;;;6310907;22;20026;-93
2022/07/10 03:18:23;;;;;;;0.77;0.20;;;14.50;99.90;;;;;;6286313;22;20015;-93
2022/07/10 03:20:49;;;;;;;1.48;0.20;;;14.50;99.90;;;;;;6286207;22;20029;-93
2022/07/10 03:23:14;;;;;;;2.63;0.47;;;14.50;99.90;;;;;;6286221;22;20015;-94
2022/07/10 03:25:40;;;;;;;1.48;0.60;;;14.50;99.90;;;;;;6286653;22;20017;-95
2022/07/10 03:28:06;;;;;;;3.75;0.30;;;14.50;99.90;;;;;;6286294;22;20022;-94
2022/07/10 03:30:32;;;;;;;1.83;0.40;;;14.50;99.90;;;;;;6286455;22;20018;-95
2022/07/10 03:32:57;;;;;;;1.30;0.30;;;14.50;99.90;;;;;;6285771;22;20252;-95
2022/07/10 03:35:25;;;;;;;2.28;0.40;;;14.40;99.90;;;;;;6286089;22;20015;-95
2022/07/10 03:37:51;;;;;;;2.08;0.32;;;14.40;99.90;;;;;;6286110;22;20014;-95
2022/07/10 03:40:17;;;;;;;3.63;0.40;;;14.40;99.90;;;;;;6286162;22;20042;-94
2022/07/10 03:42:42;;;;;;;1.95;0.30;;;14.50;99.90;;;;;;6286339;22;20071;-94
2022/07/10 03:45:08;;;;;;;2.00;0.40;;;14.50;99.90;;;;;;6286458;22;20011;-94
2022/07/10 03:47:34;;;;;;;2.05;0.35;;;14.50;99.90;;;;;;6286410;22;20069;-95
2022/07/10 03:50:00;;;;;;;1.30;0.50;;;14.60;99.90;;;;;;6285748;22;20014;-94
2022/07/10 03:52:25;;;;;;;2.50;0.20;;;14.60;99.90;;;;;;6286201;22;20343;-96
2022/07/10 03:54:54;;;;;;;4.00;0.93;;;14.60;99.90;;;;;;6285838;22;20110;-95
2022/07/10 04:00:04;;;;;;;2.00;0.40;;;14.70;99.90;;;;;;6312229;22;20025;-95
2022/07/10 04:02:54;;;;;;;2.72;0.40;;;14.70;99.90;;;;;;6286457;22;20501;-94
2022/07/10 04:05:20;;;;;;;1.60;0.25;;;14.80;99.90;;;;;;6286109;22;20007;-93
2022/07/10 04:07:46;;;;;;;2.93;0.30;;;14.80;99.90;;;;;;6311997;22;20497;-92
2022/07/10 04:10:11;;;;;;;0.95;0.30;;;14.80;99.90;;;;;;6285839;22;20249;-93
2022/07/10 04:12:37;;;;;;;1.45;0.47;;;14.90;99.90;;;;;;6287292;22;20056;-95
2022/07/10 04:15:06;;;;;;;2.92;0.43;;;14.90;99.90;;;;;;6287419;22;20108;-94
2022/07/10 04:17:32;;;;;;;2.47;0.40;;;14.90;99.90;;;;;;6313689;22;20010;-94
2022/07/10 04:20:06;;;;;;;5.15;0.77;;;14.90;99.90;;;;;;6313952;22;20025;-96
2022/07/10 04:22:35;;;;;;;3.08;0.57;;;14.90;99.90;;;;;;6288559;22;20015;-96
2022/07/10 04:25:01;;;;;;;1.60;0.60;;;14.90;99.90;;;;;;6288037;22;20015;-94
2022/07/10 04:27:27;;;;;;;3.70;0.43;;;15.00;99.90;;;;;;6288119;22;20105;-94
2022/07/10 04:29:53;;;;;;;2.40;0.40;;;15.00;99.90;;;;;;6288364;22;20010;-93
2022/07/10 04:32:19;;;;;;;2.88;0.77;;;15.00;99.90;;;;;;6287587;22;20101;-95
2022/07/10 04:34:44;;;;;;;1.57;0.40;;;15.00;99.90;;;;;;6313881;22;20099;-94
2022/07/10 04:37:29;;;;;;;1.27;0.30;;;15.00;99.90;;;;;;6288122;22;20248;-94
2022/07/10 04:39:54;;;;;;;2.13;0.32;;;15.00;99.90;;;;;;6287444;22;20071;-93
2022/07/10 04:42:20;;;;;;;3.70;0.90;;;15.00;99.90;;;;;;6287233;22;20022;-94
2022/07/10 04:44:46;;;;;;;2.28;0.30;;;15.00;99.90;;;;;;6287873;22;20011;-94
2022/07/10 04:47:12;;;;;;;3.20;0.60;;;15.00;99.90;;;;;;6287574;22;20023;-93
2022/07/10 04:49:41;;;;;;;2.53;0.43;;;15.00;99.90;;;;;;6288104;22;20026;-90
2022/07/10 05:23:11;;;;;;;2.05;0.30;;;15.20;99.90;;;;;;6339187;22;20026;-90
2022/07/10 05:25:38;;;;;;;1.63;0.47;;;15.30;99.90;;;;;;6286280;22;20015;-91
2022/07/10 05:28:29;;;;;;;2.85;0.40;;;15.20;99.90;;;;;;6287316;22;20014;-91
2022/07/10 05:30:54;;;;;;;1.92;0.40;;;15.20;99.90;;;;;;6286996;22;20011;-94
2022/07/10 05:33:46;;;;;;;5.47;0.45;;;15.30;99.90;;;;;;6286299;22;20071;-94
2022/07/10 05:55:33;;;;;;;2.90;0.35;;;15.40;99.90;;;;;;6408320;22;20388;-92
2022/07/10 06:17:44;;;;;;;1.33;0.50;;;15.50;99.90;;;;;;6400689;22;20022;-90
2022/07/10 06:20:10;;;;;;;1.77;0.30;;;15.50;99.90;;;;;;6376096;22;20018;-95
2022/07/10 06:22:35;;;;;;;3.72;0.50;;;15.40;99.90;;;;;;6401384;22;20457;-94
2022/07/10 06:25:07;;;;;;;1.90;0.40;;;15.50;99.90;;;;;;6373783;22;20013;-93
2022/07/10 06:27:33;;;;;;;4.47;0.38;;;15.50;99.90;;;;;;6375622;22;20017;-93
2022/07/10 06:29:59;;;;;;;0.85;0.30;;;15.50;99.90;;;;;;6404556;22;20010;-95
2022/07/10 06:32:25;;;;;;;2.30;0.40;;;15.50;99.90;;;;;;6374836;22;20014;-93
2022/07/10 06:34:51;;;;;;;1.88;0.20;;;15.50;99.90;;;;;;6373542;22;20100;-93
2022/07/10 06:37:18;;;;;;;;;;;15.60;99.90;;;;;;6375493;22;20014;-91
2022/07/10 06:39:52;;;;;;;2.85;0.30;;;15.50;99.90;;;;;;6375147;22;20242;-91
2022/07/10 06:42:39;;;;;;;1.23;0.20;;;15.50;99.90;;;;;;6401354;22;20124;-93
2022/07/10 06:55:27;;;;;;;1.98;0.55;;;15.40;99.90;;;;;;6400856;22;20070;-89
2022/07/10 06:57:59;;;;;;;;;;;15.40;99.90;;;;;;6348765;22;20473;-88
2022/07/10 07:29:40;;;;;;;1.70;0.30;;;15.70;99.90;;;;;;6400531;22;20026;-90
2022/07/10 07:35:31;;;;;;;1.05;0.30;;;15.80;99.90;;;;;;6374986;22;20018;-92
2022/07/10 07:38:10;;;;;;;1.27;0.30;;;15.80;99.90;;;;;;6374851;22;20050;-91
2022/07/10 07:40:37;;;;;;;0.93;0.28;;;15.80;99.90;;;;;;6373585;22;20018;-90
2022/07/10 07:43:03;;;;;;;1.80;0.30;;;15.90;99.90;;;;;;6373214;22;20021;-90
2022/07/10 07:45:36;;;;;;;1.85;0.30;;;15.90;99.90;;;;;;6374427;22;20339;-90
2022/07/10 07:48:37;;;;;;;0.68;0.20;;;15.90;99.90;;;;;;6376150;22;20373;-91
2022/07/10 08:34:02;;;;;;;2.08;0.25;;;15.80;99.90;;;;;;6310839;22;20101;-90
2022/07/10 08:37:04;;;;;;;0.30;0.10;;;15.80;99.90;;;;;;6280993;22;20074;-89
2022/07/10 08:40:11;;;;;;;;;;;;;;;;;;;;;
2022/07/10 10:00:33;;;;;;;0.38;0.20;;;16.40;99.90;;;;;;6401267;22;20017;-88
2022/07/10 10:03:04;;;;;;;1.40;0.30;;;16.40;99.90;;;;;;6372591;22;20032;-89
2022/07/10 10:05:52;;;;;;;1.25;0.30;;;16.40;99.90;;;;;;6374387;22;20028;-90
2022/07/10 10:08:30;;;;;;;1.20;0.30;;;16.30;99.90;;;;;;6373810;22;20013;-90
2022/07/10 12:10:16;;;;;;;1.08;0.40;;;16.80;99.90;;;;;;6400617;22;20022;-93
2022/07/10 18:37:09;;;;;;;3.53;1.17;;;17.70;99.90;;;;;;6311419;22;20023;-91
2022/07/10 18:42:05;;;;;;;2.20;1.00;;;17.60;99.90;;;;;;6315581;22;20030;-92
2022/07/10 18:44:50;;;;;;;3.25;0.88;;;17.60;99.90;;;;;;6312969;22;20015;-92
2022/07/10 18:47:45;;;;;;;2.63;0.95;;;17.60;99.90;;;;;;6317493;22;20042;-91
2022/07/10 18:50:10;;;;;;;2.05;0.88;;;17.60;99.90;;;;;;6307203;22;20015;-92
2022/07/10 18:52:36;;;;;;;4.32;1.23;;;17.50;99.90;;;;;;6317528;22;20343;-92
2022/07/10 18:55:34;;;;;;;4.55;1.30;;;17.50;99.90;;;;;;6316174;22;20455;-93
2022/07/10 19:00:35;;;;;;;5.55;1.38;;;17.50;99.90;;;;;;6375491;22;20029;-91
2022/07/10 19:03:01;;;;;;;2.80;1.15;;;17.50;99.90;;;;;;6374478;22;20021;-94
2022/07/10 19:05:28;;;;;;;1.88;0.93;;;17.50;99.90;;;;;;6374590;22;20021;-94
2022/07/10 19:07:54;;;;;;;3.20;1.10;;;17.50;99.90;;;;;;6374622;22;20032;-93
2022/07/10 19:10:20;;;;;;;1.70;0.75;;;17.50;99.90;;;;;;6375480;22;20014;-92
2022/07/10 19:15:21;;;;;;;2.08;0.90;;;17.40;99.90;;;;;;6371457;22;20467;-91
2022/07/10 19:20:22;;;;;;;2.20;0.85;;;17.40;99.90;;;;;;6371450;22;20018;-93
2022/07/10 19:22:48;;;;;;;2.50;0.98;;;17.40;99.90;;;;;;6343650;22;20071;-93
2022/07/10 19:25:15;;;;;;;3.70;1.15;;;17.40;99.90;;;;;;6317564;22;20010;-94
2022/07/10 19:27:42;;;;;;;3.40;1.10;;;17.40;99.90;;;;;;6317546;22;20025;-93
2022/07/10 19:32:58;;;;;;;2.80;1.15;;;17.40;99.90;;;;;;6334565;22;20022;-92
2022/07/10 19:35:44;;;;;;;3.45;0.90;;;17.40;99.90;;;;;;6317770;22;20022;-90
2022/07/10 23:32:13;;;;;;;2.28;0.50;;;16.20;99.90;;;;;;6374558;22;20038;-93
2022/07/10 23:34:42;;;;;;;1.23;0.50;;;16.20;99.90;;;;;;6318896;22;20019;-92
2022/07/10 23:44:24;;;;;;;2.22;0.65;;;16.10;99.90;;;;;;6376844;22;20147;-92
2022/07/10 23:46:53;;;;;;;1.45;0.60;;;16.00;99.90;;;;;;6350427;22;20010;-94
2022/07/10 23:52:35;;;;;;;1.00;0.50;;;16.00;99.90;;;;;;6377636;22;20018;-94
2022/07/10 23:55:00;;;;;;;3.28;0.90;;;16.10;99.90;;;;;;6327935;22;20014;-92
2022/07/10 23:57:32;;;;;;;2.20;0.88;;;16.10;99.90;;;;;;6380948;22;20014;-93
